createdAt,value
2023-05-19T00:01:18.818Z,6.80
2023-05-19T00:03:54.005Z,3.90
2023-05-19T00:06:29.344Z,4.85
2023-05-19T00:08:58.353Z,8.18
2023-05-19T00:11:26.934Z,6.32
2023-05-19T00:13:55.531Z,6.05
2023-05-19T00:16:23.809Z,4.32
2023-05-19T00:18:53.402Z,4.88
2023-05-19T00:21:21.852Z,9.55
2023-05-19T00:23:51.410Z,7.00
2023-05-19T00:26:19.609Z,8.40
2023-05-19T00:28:56.232Z,11.18
2023-05-19T00:31:24.281Z,3.70
2023-05-19T00:33:53.422Z,5.30
2023-05-19T00:36:21.477Z,6.72
2023-05-19T00:38:49.450Z,7.43
2023-05-19T00:41:18.876Z,6.35
2023-05-19T00:43:46.773Z,5.90
2023-05-19T00:46:17.403Z,8.15
2023-05-19T00:48:45.836Z,5.30
2023-05-19T00:51:17.166Z,4.50
2023-05-19T00:53:48.667Z,9.82
2023-05-19T00:56:19.658Z,4.53
2023-05-19T00:58:48.148Z,5.30
2023-05-19T01:01:17.464Z,6.13
2023-05-19T01:03:47.344Z,7.70
2023-05-19T01:06:15.371Z,4.75
2023-05-19T01:08:43.550Z,6.63
2023-05-19T01:11:11.710Z,7.88
2023-05-19T01:13:42.282Z,6.80
2023-05-19T01:16:13.683Z,5.75
2023-05-19T01:18:51.273Z,10.63
2023-05-19T01:21:36.645Z,11.73
2023-05-19T01:24:14.519Z,6.70
2023-05-19T01:27:00.136Z,7.88
2023-05-19T01:29:39.907Z,5.20
2023-05-19T01:32:10.742Z,5.40
2023-05-19T01:34:44.814Z,11.40
2023-05-19T01:37:14.562Z,7.22
2023-05-19T01:39:43.611Z,9.20
2023-05-19T01:42:12.187Z,6.38
2023-05-19T01:44:41.694Z,4.57
2023-05-19T01:47:11.506Z,6.15
2023-05-19T01:49:39.452Z,8.27
2023-05-19T01:52:07.662Z,4.88
2023-05-19T01:54:36.653Z,10.23
2023-05-19T01:57:07.821Z,6.28
2023-05-19T01:59:43.269Z,11.68
2023-05-19T02:02:17.886Z,6.72
2023-05-19T02:04:49.935Z,5.35
2023-05-19T02:07:21.320Z,6.78
2023-05-19T02:09:55.491Z,4.82
2023-05-19T02:12:27.312Z,8.15
2023-05-19T02:15:00.223Z,7.68
2023-05-19T02:17:33.282Z,5.45
2023-05-19T02:20:01.376Z,8.05
2023-05-19T02:22:29.490Z,8.63
2023-05-19T02:24:57.645Z,10.25
2023-05-19T02:27:26.421Z,10.98
2023-05-19T02:29:54.547Z,8.45
2023-05-19T02:32:22.560Z,6.88
2023-05-19T02:34:53.376Z,5.78
2023-05-19T02:37:23.881Z,7.50
2023-05-19T02:39:51.912Z,7.47
2023-05-19T02:42:20.030Z,6.57
2023-05-19T02:44:49.662Z,7.60
2023-05-19T02:47:17.647Z,5.57
2023-05-19T02:49:46.051Z,7.20
2023-05-19T02:52:15.532Z,8.50
2023-05-19T02:54:43.610Z,8.23
2023-05-19T02:57:12.002Z,10.95
2023-05-19T02:59:39.919Z,10.15
2023-05-19T03:02:07.948Z,7.65
2023-05-19T03:04:42.428Z,10.23
2023-05-19T03:07:11.259Z,10.15
2023-05-19T03:09:41.057Z,7.60
2023-05-19T03:12:09.194Z,8.15
2023-05-19T03:14:38.822Z,8.18
2023-05-19T03:17:08.459Z,7.15
2023-05-19T03:19:36.756Z,12.93
2023-05-19T03:22:05.039Z,7.10
2023-05-19T03:24:35.021Z,12.07
2023-05-19T03:27:06.168Z,6.32
2023-05-19T03:29:34.918Z,8.82
2023-05-19T03:32:03.847Z,8.77
2023-05-19T03:34:32.921Z,12.77
2023-05-19T03:37:00.961Z,8.23
2023-05-19T03:39:29.032Z,6.30
2023-05-19T03:41:57.490Z,9.20
2023-05-19T03:44:26.894Z,10.95
2023-05-19T03:46:55.338Z,8.05
2023-05-19T03:49:41.944Z,7.97
2023-05-19T03:52:09.950Z,11.65
2023-05-19T03:54:54.217Z,8.43
2023-05-19T03:57:22.601Z,7.25
2023-05-19T03:59:52.191Z,6.53
2023-05-19T04:02:21.526Z,7.95
2023-05-19T04:04:50.781Z,9.18
2023-05-19T04:07:18.914Z,7.65
2023-05-19T04:09:48.703Z,10.00
2023-05-19T04:12:16.771Z,11.10
2023-05-19T04:14:44.770Z,9.93
2023-05-19T04:17:14.212Z,10.07
2023-05-19T04:19:42.398Z,10.45
2023-05-19T04:22:10.369Z,9.35
2023-05-19T04:24:38.363Z,9.52
2023-05-19T04:27:12.035Z,9.15
2023-05-19T04:29:41.236Z,12.02
2023-05-19T04:32:10.785Z,9.80
2023-05-19T04:34:45.349Z,14.68
2023-05-19T04:37:18.343Z,10.05
2023-05-19T04:39:46.616Z,11.13
2023-05-19T04:42:19.438Z,10.43
2023-05-19T04:44:49.479Z,9.35
2023-05-19T04:47:18.099Z,11.82
2023-05-19T04:49:48.105Z,8.63
2023-05-19T04:52:21.786Z,15.98
2023-05-19T04:54:49.939Z,9.13
2023-05-19T04:57:17.974Z,12.85
2023-05-19T04:59:49.959Z,8.43
2023-05-19T05:02:18.041Z,9.55
2023-05-19T05:04:46.691Z,14.68
2023-05-19T05:07:16.532Z,10.18
2023-05-19T05:09:45.183Z,10.18
2023-05-19T05:12:14.352Z,7.57
2023-05-19T05:14:43.165Z,13.45
2023-05-19T05:17:14.096Z,7.85
2023-05-19T05:19:43.535Z,11.52
2023-05-19T05:22:11.829Z,10.32
2023-05-19T05:24:42.960Z,10.98
2023-05-19T05:27:10.977Z,13.82
2023-05-19T05:29:39.107Z,10.82
2023-05-19T05:32:09.119Z,17.45
2023-05-19T05:34:40.574Z,13.77
2023-05-19T05:37:08.696Z,11.43
2023-05-19T05:39:38.033Z,17.20
2023-05-19T05:42:09.160Z,15.00
2023-05-19T05:44:37.591Z,12.30
2023-05-19T05:47:07.199Z,12.80
2023-05-19T05:49:37.074Z,10.18
2023-05-19T05:52:06.975Z,13.43
2023-05-19T05:54:42.523Z,12.88
2023-05-19T05:57:14.625Z,16.13
2023-05-19T05:59:45.813Z,12.43
2023-05-19T06:02:14.261Z,11.02
2023-05-19T06:04:42.447Z,12.70
2023-05-19T06:07:10.579Z,15.00
2023-05-19T06:09:40.008Z,14.10
2023-05-19T06:12:10.167Z,16.63
2023-05-19T06:14:47.212Z,18.58
2023-05-19T06:17:38.377Z,15.35
2023-05-19T06:20:07.070Z,16.48
2023-05-19T06:22:35.781Z,18.67
2023-05-19T06:25:05.187Z,14.18
2023-05-19T06:27:35.015Z,15.02
2023-05-19T06:30:08.848Z,16.60
2023-05-19T06:32:46.187Z,16.08
2023-05-19T06:35:14.700Z,16.13
2023-05-19T06:37:43.210Z,14.30
2023-05-19T06:40:12.838Z,13.80
2023-05-19T06:42:42.650Z,17.08
2023-05-19T06:45:24.766Z,16.92
2023-05-19T06:47:54.236Z,15.65
2023-05-19T06:50:22.509Z,19.98
2023-05-19T06:52:51.409Z,14.23
2023-05-19T06:55:19.785Z,20.27
2023-05-19T06:57:50.041Z,17.45
2023-05-19T07:00:22.116Z,18.33
2023-05-19T07:02:54.723Z,14.40
2023-05-19T07:05:22.947Z,14.00
2023-05-19T07:07:55.442Z,15.95
2023-05-19T07:10:27.417Z,15.80
2023-05-19T07:12:56.484Z,15.27
2023-05-19T07:15:26.843Z,20.65
2023-05-19T07:17:56.642Z,17.77
2023-05-19T07:20:25.627Z,15.90
2023-05-19T07:22:53.644Z,16.60
2023-05-19T07:25:21.746Z,14.57
2023-05-19T07:27:50.130Z,13.32
2023-05-19T07:30:18.141Z,14.50
2023-05-19T07:32:46.315Z,17.65
2023-05-19T07:35:16.373Z,13.27
2023-05-19T07:37:44.780Z,17.20
2023-05-19T07:40:13.319Z,16.30
2023-05-19T07:42:41.741Z,19.33
2023-05-19T07:45:10.425Z,17.67
2023-05-19T07:47:39.657Z,14.23
2023-05-19T07:50:08.371Z,11.10
2023-05-19T07:52:40.400Z,13.32
2023-05-19T07:55:09.084Z,13.02
2023-05-19T07:57:37.161Z,10.95
2023-05-19T08:00:07.780Z,11.20
2023-05-19T08:02:39.808Z,15.10
2023-05-19T08:05:09.284Z,10.20
2023-05-19T08:07:39.131Z,13.20
2023-05-19T08:10:07.455Z,11.93
2023-05-19T08:12:35.588Z,19.10
2023-05-19T08:15:03.834Z,11.68
2023-05-19T08:17:32.007Z,13.35
2023-05-19T08:20:00.435Z,14.27
2023-05-19T08:22:28.444Z,9.75
2023-05-19T08:24:58.217Z,9.48
2023-05-19T08:27:26.244Z,10.98
2023-05-19T08:29:55.432Z,9.15
2023-05-19T08:32:24.011Z,8.80
2023-05-19T08:34:52.080Z,10.88
2023-05-19T08:37:25.899Z,7.90
2023-05-19T08:39:54.042Z,7.72
2023-05-19T08:42:23.563Z,5.53
2023-05-19T08:44:51.731Z,8.77
2023-05-19T08:47:20.121Z,8.15
2023-05-19T08:49:51.873Z,10.50
2023-05-19T08:52:24.857Z,7.88
2023-05-19T08:54:55.086Z,5.40
2023-05-19T08:57:25.749Z,6.03
2023-05-19T08:59:55.226Z,15.23
2023-05-19T09:02:23.626Z,11.40
2023-05-19T09:04:52.078Z,5.20
2023-05-19T09:07:21.380Z,6.55
2023-05-19T09:09:50.298Z,6.97
2023-05-19T09:12:18.444Z,9.50
2023-05-19T09:14:48.039Z,8.70
2023-05-19T09:17:16.961Z,7.07
2023-05-19T09:19:48.308Z,4.68
2023-05-19T09:22:19.190Z,7.25
2023-05-19T09:24:48.216Z,8.10
2023-05-19T09:27:22.886Z,7.60
2023-05-19T09:29:52.898Z,9.60
2023-05-19T09:32:27.657Z,6.45
2023-05-19T09:34:56.025Z,5.32
2023-05-19T09:37:24.408Z,8.65
2023-05-19T09:39:53.300Z,6.55
2023-05-19T09:42:25.423Z,9.32
2023-05-19T09:45:00.144Z,10.68
2023-05-19T09:47:29.145Z,8.93
2023-05-19T09:49:58.839Z,7.07
2023-05-19T09:52:27.462Z,6.30
2023-05-19T09:54:56.173Z,11.48
2023-05-19T09:57:27.079Z,6.15
2023-05-19T09:59:58.185Z,7.35
2023-05-19T10:02:27.323Z,7.55
2023-05-19T10:04:57.197Z,4.72
2023-05-19T10:07:25.773Z,8.18
2023-05-19T10:09:55.757Z,5.90
2023-05-19T10:12:25.708Z,7.13
2023-05-19T10:14:58.075Z,6.28
2023-05-19T10:17:28.518Z,6.43
2023-05-19T10:19:56.496Z,9.02
2023-05-19T10:22:24.483Z,9.02
2023-05-19T10:24:52.646Z,8.30
2023-05-19T10:27:21.068Z,10.82
2023-05-19T10:29:50.482Z,10.30
2023-05-19T10:32:22.441Z,9.63
2023-05-19T10:35:10.352Z,8.68
2023-05-19T10:37:46.846Z,6.20
2023-05-19T10:40:20.383Z,9.30
2023-05-19T10:42:55.259Z,10.43
2023-05-19T10:45:25.851Z,7.55
2023-05-19T10:47:55.791Z,4.10
2023-05-19T10:50:23.775Z,7.35
2023-05-19T10:52:54.343Z,7.15
2023-05-19T10:55:37.792Z,7.70
2023-05-19T10:58:05.936Z,6.40
2023-05-19T11:00:34.046Z,3.08
2023-05-19T11:03:15.399Z,6.78
2023-05-19T11:05:45.780Z,9.32
2023-05-19T11:08:14.081Z,7.43
2023-05-19T11:10:45.393Z,6.97
2023-05-19T11:13:22.493Z,5.40
2023-05-19T11:15:51.125Z,5.20
2023-05-19T11:18:20.754Z,7.82
2023-05-19T11:20:59.269Z,5.32
2023-05-19T11:23:27.488Z,6.63
2023-05-19T11:25:55.671Z,6.63
2023-05-19T11:28:26.314Z,7.55
2023-05-19T11:30:57.891Z,2.53
2023-05-19T11:33:27.875Z,7.10
2023-05-19T11:35:58.128Z,12.38
2023-05-19T11:38:26.501Z,9.02
2023-05-19T11:40:55.899Z,7.55
2023-05-19T11:43:24.429Z,6.18
2023-05-19T11:45:52.808Z,5.85
2023-05-19T11:48:22.065Z,6.78
2023-05-19T11:50:51.648Z,5.10
2023-05-19T11:53:21.032Z,5.15
2023-05-19T11:55:50.047Z,6.22
2023-05-19T11:58:18.334Z,4.13
2023-05-19T12:00:48.033Z,2.97
2023-05-19T12:03:17.632Z,3.10
2023-05-19T12:05:47.585Z,3.67
2023-05-19T12:08:18.720Z,7.18
2023-05-19T12:10:56.867Z,4.32
2023-05-19T12:13:25.169Z,10.35
2023-05-19T12:15:53.810Z,5.75
2023-05-19T12:18:22.833Z,4.05
2023-05-19T12:20:51.133Z,8.48
2023-05-19T12:23:20.812Z,6.03
2023-05-19T12:25:49.509Z,6.13
2023-05-19T12:28:17.670Z,3.50
2023-05-19T12:30:48.657Z,3.80
2023-05-19T12:33:17.196Z,8.00
2023-05-19T12:35:46.291Z,5.22
2023-05-19T12:38:15.433Z,3.50
2023-05-19T12:40:45.109Z,7.43
2023-05-19T12:43:20.720Z,5.53
2023-05-19T12:45:48.946Z,4.40
2023-05-19T12:48:17.255Z,3.60
2023-05-19T12:50:45.946Z,6.13
2023-05-19T12:53:14.774Z,7.60
2023-05-19T12:55:45.230Z,6.35
2023-05-19T12:58:14.131Z,5.03
2023-05-19T13:00:42.767Z,4.10
2023-05-19T13:03:16.984Z,4.65
2023-05-19T13:05:46.568Z,7.57
2023-05-19T13:08:16.290Z,6.72
2023-05-19T13:10:46.461Z,6.18
2023-05-19T13:13:14.804Z,4.57
2023-05-19T13:15:43.416Z,6.20
2023-05-19T13:18:12.987Z,6.03
2023-05-19T13:20:42.117Z,3.00
2023-05-19T13:23:13.784Z,4.32
2023-05-19T13:25:42.917Z,4.20
2023-05-19T13:28:12.384Z,3.38
2023-05-19T13:30:42.052Z,7.13
2023-05-19T13:33:10.464Z,4.30
2023-05-19T13:35:39.374Z,5.45
2023-05-19T13:38:08.230Z,3.40
2023-05-19T13:40:37.659Z,6.65
2023-05-19T13:43:06.017Z,5.47
2023-05-19T13:45:35.738Z,7.30
2023-05-19T13:48:04.284Z,4.45
2023-05-19T13:50:32.555Z,3.45
2023-05-19T13:53:00.573Z,3.40
2023-05-19T13:55:28.938Z,3.63
2023-05-19T13:57:56.980Z,2.22
2023-05-19T14:00:25.462Z,5.15
2023-05-19T14:02:55.230Z,3.50
2023-05-19T14:05:23.305Z,3.03
2023-05-19T14:07:54.162Z,3.65
2023-05-19T14:10:22.466Z,7.38
2023-05-19T14:13:25.187Z,16.20
2023-05-19T14:15:39.418Z,3.25
2023-05-19T14:18:09.110Z,9.02
2023-05-19T14:20:38.167Z,8.15
2023-05-19T14:23:06.883Z,5.03
2023-05-19T14:25:35.516Z,5.03
2023-05-19T14:28:03.820Z,3.90
2023-05-19T14:30:32.117Z,6.55
2023-05-19T14:33:00.596Z,6.30
2023-05-19T14:35:30.280Z,7.00
2023-05-19T14:37:58.461Z,6.40
2023-05-19T14:40:27.003Z,5.35
2023-05-19T14:42:55.210Z,6.55
2023-05-19T14:45:23.113Z,4.72
2023-05-19T14:47:51.146Z,3.92
2023-05-19T14:50:19.207Z,3.53
2023-05-19T14:52:48.657Z,6.93
2023-05-19T14:55:16.609Z,5.93
2023-05-19T14:57:44.804Z,3.58
2023-05-19T15:00:13.281Z,5.03
2023-05-19T15:02:42.088Z,3.92
2023-05-19T15:05:10.345Z,5.30
2023-05-19T15:07:39.586Z,3.47
2023-05-19T15:10:09.777Z,5.43
2023-05-19T15:12:38.124Z,2.58
2023-05-19T15:15:06.537Z,5.68
2023-05-19T15:17:34.601Z,5.43
2023-05-19T15:20:02.760Z,3.92
2023-05-19T15:22:30.795Z,3.92
2023-05-19T15:24:59.412Z,2.97
2023-05-19T15:27:31.108Z,5.00
2023-05-19T15:29:59.793Z,5.40
2023-05-19T15:32:27.868Z,7.57
2023-05-19T15:34:56.041Z,6.13
2023-05-19T15:37:24.357Z,5.35
2023-05-19T15:39:55.048Z,3.30
2023-05-19T15:42:23.329Z,11.80
2023-05-19T15:44:52.650Z,7.18
2023-05-19T15:47:20.580Z,4.43
2023-05-19T15:49:48.692Z,6.65
2023-05-19T15:52:16.737Z,9.07
2023-05-19T15:54:44.792Z,4.03
2023-05-19T15:57:13.741Z,6.55
2023-05-19T15:59:41.766Z,4.18
2023-05-19T16:02:11.256Z,3.70
2023-05-19T16:04:39.843Z,3.40
2023-05-19T16:07:07.841Z,6.32
2023-05-19T16:09:35.804Z,6.75
2023-05-19T16:12:05.195Z,8.38
2023-05-19T16:14:37.103Z,4.60
2023-05-19T16:17:05.235Z,3.40
2023-05-19T16:19:34.619Z,7.15
2023-05-19T16:22:03.279Z,4.30
2023-05-19T16:24:34.523Z,10.65
2023-05-19T16:27:02.588Z,5.32
2023-05-19T16:29:30.798Z,5.30
2023-05-19T16:31:59.020Z,5.47
2023-05-19T16:34:28.634Z,4.15
2023-05-19T16:36:59.674Z,11.73
2023-05-19T16:39:27.831Z,5.57
2023-05-19T16:41:56.222Z,4.85
2023-05-19T16:44:24.701Z,13.38
2023-05-19T16:46:52.666Z,15.20
2023-05-19T16:49:20.884Z,4.80
2023-05-19T16:51:51.189Z,4.30
2023-05-19T16:54:21.071Z,8.85
2023-05-19T16:56:49.105Z,3.95
2023-05-19T16:59:17.429Z,3.72
2023-05-19T17:01:45.467Z,4.10
2023-05-19T17:04:14.052Z,8.65
2023-05-19T17:06:42.061Z,7.40
2023-05-19T17:09:10.130Z,3.40
2023-05-19T17:11:41.214Z,9.10
2023-05-19T17:14:09.401Z,14.70
2023-05-19T17:16:38.172Z,6.10
2023-05-19T17:19:06.387Z,7.72
2023-05-19T17:21:34.399Z,10.70
2023-05-19T17:24:02.414Z,9.07
2023-05-19T17:26:30.540Z,6.07
2023-05-19T17:29:00.027Z,6.13
2023-05-19T17:31:28.035Z,5.47
2023-05-19T17:33:56.026Z,9.15
2023-05-19T17:36:24.284Z,10.00
2023-05-19T17:38:53.547Z,46.63
2023-05-19T17:41:21.983Z,9.23
2023-05-19T17:43:50.040Z,10.00
2023-05-19T17:46:19.356Z,7.93
2023-05-19T17:48:47.329Z,13.73
2023-05-19T17:51:15.665Z,10.90
2023-05-19T17:53:43.859Z,7.40
2023-05-19T17:56:12.879Z,5.65
2023-05-19T17:58:41.546Z,7.85
2023-05-19T18:01:10.155Z,7.97
2023-05-19T18:03:40.148Z,7.22
2023-05-19T18:06:08.627Z,10.82
2023-05-19T18:08:38.282Z,9.57
2023-05-19T18:11:06.850Z,8.45
2023-05-19T18:13:34.758Z,8.45
2023-05-19T18:16:03.668Z,8.07
2023-05-19T18:18:31.723Z,6.28
2023-05-19T18:21:01.195Z,7.47
2023-05-19T18:23:29.589Z,6.47
2023-05-19T18:25:58.267Z,10.75
2023-05-19T18:28:26.563Z,10.10
2023-05-19T18:30:59.872Z,10.32
2023-05-19T18:33:28.763Z,12.25
2023-05-19T18:35:59.933Z,14.63
2023-05-19T18:38:29.436Z,12.02
2023-05-19T18:40:58.120Z,12.40
2023-05-19T18:43:26.348Z,14.68
2023-05-19T18:45:54.323Z,12.70
2023-05-19T18:48:22.803Z,11.48
2023-05-19T18:50:53.563Z,11.52
2023-05-19T18:53:22.454Z,11.18
2023-05-19T18:55:52.034Z,12.80
2023-05-19T18:58:20.804Z,9.18
2023-05-19T19:00:49.057Z,10.68
2023-05-19T19:03:17.660Z,12.05
2023-05-19T19:05:46.396Z,20.27
2023-05-19T19:08:14.456Z,36.45
2023-05-19T19:10:44.338Z,50.20
2023-05-19T19:13:13.864Z,54.08
2023-05-19T19:15:42.238Z,27.88
2023-05-19T19:18:10.367Z,19.95
2023-05-19T19:20:40.427Z,13.13
2023-05-19T19:23:08.549Z,13.20
2023-05-19T19:25:36.828Z,14.38
2023-05-19T19:28:04.931Z,10.55
2023-05-19T19:30:34.681Z,14.70
2023-05-19T19:33:04.719Z,20.13
2023-05-19T19:35:34.483Z,15.48
2023-05-19T19:38:02.555Z,16.65
2023-05-19T19:40:30.922Z,18.52
2023-05-19T19:42:59.000Z,14.18
2023-05-19T19:45:27.073Z,14.75
2023-05-19T19:47:57.100Z,18.35
2023-05-19T19:50:25.414Z,13.20
2023-05-19T19:52:53.426Z,12.82
2023-05-19T19:55:21.768Z,14.15
2023-05-19T19:57:51.245Z,14.25
2023-05-19T20:00:19.761Z,15.43
2023-05-19T20:03:03.437Z,17.17
2023-05-19T20:05:34.735Z,12.38
2023-05-19T20:08:02.704Z,10.55
2023-05-19T20:10:31.325Z,14.48
2023-05-19T20:12:59.679Z,13.63
2023-05-19T20:15:28.027Z,11.80
2023-05-19T20:17:56.356Z,10.45
2023-05-19T20:20:24.429Z,13.65
2023-05-19T20:22:53.862Z,12.50
2023-05-19T20:25:22.012Z,12.85
2023-05-19T20:27:50.215Z,13.07
2023-05-19T20:30:18.485Z,11.60
2023-05-19T20:32:47.233Z,10.43
2023-05-19T20:35:16.097Z,11.05
2023-05-19T20:37:44.196Z,12.32
2023-05-19T20:40:14.277Z,10.38
2023-05-19T20:42:42.467Z,12.60
2023-05-19T20:45:10.674Z,13.43
2023-05-19T20:47:39.051Z,17.15
2023-05-19T20:50:07.695Z,12.02
2023-05-19T20:52:36.633Z,13.23
2023-05-19T20:55:05.275Z,17.45
2023-05-19T20:57:35.022Z,19.05
2023-05-19T21:00:03.275Z,18.02
2023-05-19T21:02:31.234Z,11.68
2023-05-19T21:04:59.416Z,14.02
2023-05-19T21:07:28.378Z,14.70
2023-05-19T21:09:57.750Z,19.25
2023-05-19T21:12:28.680Z,11.35
2023-05-19T21:14:58.660Z,13.52
2023-05-19T21:17:29.657Z,13.63
2023-05-19T21:19:59.674Z,10.23
2023-05-19T21:22:28.007Z,12.63
2023-05-19T21:24:56.244Z,12.55
2023-05-19T21:27:24.371Z,10.00
2023-05-19T21:29:52.919Z,11.90
2023-05-19T21:32:23.840Z,10.00
2023-05-19T21:34:51.872Z,9.07
2023-05-19T21:37:21.250Z,15.68
2023-05-19T21:39:49.430Z,9.48
2023-05-19T21:42:17.455Z,8.20
2023-05-19T21:44:45.827Z,10.30
2023-05-19T21:47:14.218Z,13.00
2023-05-19T21:49:43.772Z,11.27
2023-05-19T21:52:13.059Z,8.77
2023-05-19T21:54:41.029Z,10.13
2023-05-19T21:57:11.227Z,9.80
2023-05-19T21:59:39.536Z,10.70
2023-05-19T22:02:07.957Z,12.52
2023-05-19T22:04:37.811Z,11.18
2023-05-19T22:07:10.292Z,12.48
2023-05-19T22:09:39.073Z,10.00
2023-05-19T22:12:07.658Z,7.07
2023-05-19T22:14:38.295Z,12.15
2023-05-19T22:17:06.476Z,6.53
2023-05-19T22:19:34.494Z,9.02
2023-05-19T22:22:13.109Z,8.85
2023-05-19T22:24:44.420Z,7.85
2023-05-19T22:27:12.473Z,13.75
2023-05-19T22:29:40.491Z,10.20
2023-05-19T22:32:12.073Z,13.25
2023-05-19T22:34:40.471Z,9.00
2023-05-19T22:37:08.436Z,12.20
2023-05-19T22:39:36.610Z,16.83
2023-05-19T22:42:09.417Z,9.27
2023-05-19T22:44:38.024Z,7.88
2023-05-19T22:47:06.981Z,14.95
2023-05-19T22:49:34.898Z,12.32
2023-05-19T22:52:03.159Z,14.93
2023-05-19T22:54:31.536Z,10.23
2023-05-19T22:56:59.612Z,8.15
2023-05-19T22:59:29.146Z,7.57
2023-05-19T23:01:57.396Z,10.27
2023-05-19T23:04:25.870Z,8.98
2023-05-19T23:06:54.140Z,6.53
2023-05-19T23:09:22.151Z,10.70
2023-05-19T23:11:50.351Z,8.05
2023-05-19T23:14:19.292Z,9.15
2023-05-19T23:16:48.793Z,10.65
2023-05-19T23:19:17.158Z,8.50
2023-05-19T23:21:46.264Z,11.32
2023-05-19T23:24:14.515Z,7.53
2023-05-19T23:26:44.150Z,7.95
2023-05-19T23:29:12.572Z,10.80
2023-05-19T23:31:41.184Z,14.15
2023-05-19T23:34:10.892Z,8.75
2023-05-19T23:36:39.217Z,17.17
2023-05-19T23:39:08.892Z,7.97
2023-05-19T23:41:40.250Z,9.63
2023-05-19T23:44:09.311Z,7.93
2023-05-19T23:46:37.827Z,11.10
2023-05-19T23:49:06.361Z,10.30
2023-05-19T23:51:37.942Z,11.27
2023-05-19T23:54:06.090Z,7.95
2023-05-19T23:56:34.295Z,14.95
2023-05-19T23:59:02.559Z,10.85
